createdAt,value
2018-10-21T00:01:20.027Z,22.67
2018-10-21T00:03:48.334Z,22.67
2018-10-21T00:06:17.229Z,22.67
2018-10-21T00:08:44.958Z,22.67
2018-10-21T00:11:13.838Z,22.67
2018-10-21T00:13:42.149Z,22.67
2018-10-21T00:16:10.460Z,22.67
2018-10-21T00:18:38.769Z,22.67
2018-10-21T00:21:06.527Z,22.67
2018-10-21T00:23:34.802Z,22.67
2018-10-21T00:26:04.283Z,22.67
2018-10-21T00:28:32.013Z,22.67
2018-10-21T00:31:00.326Z,22.67
2018-10-21T00:33:29.216Z,22.67
2018-10-21T00:35:58.513Z,22.67
2018-10-21T00:38:26.248Z,22.67
2018-10-21T00:40:54.573Z,22.67
2018-10-21T00:43:22.890Z,22.67
2018-10-21T00:45:51.209Z,22.67
2018-10-21T00:48:20.426Z,22.67
2018-10-21T00:50:50.651Z,22.67
2018-10-21T00:53:18.975Z,22.67
2018-10-21T00:55:46.728Z,22.67
2018-10-21T00:58:15.622Z,22.67
2018-10-21T01:00:43.938Z,22.67
2018-10-21T01:03:12.348Z,22.67
2018-10-21T01:05:40.586Z,22.67
2018-10-21T01:08:08.905Z,22.67
2018-10-21T01:10:36.644Z,22.67
2018-10-21T01:13:04.952Z,22.67
2018-10-21T01:15:33.853Z,22.67
2018-10-21T01:18:02.166Z,22.67
2018-10-21T01:20:30.473Z,22.67
2018-10-21T01:22:58.214Z,22.67
2018-10-21T01:25:26.527Z,22.67
2018-10-21T01:27:55.410Z,22.67
2018-10-21T01:30:23.154Z,22.67
2018-10-21T01:32:52.037Z,22.67
2018-10-21T01:35:20.673Z,22.67
2018-10-21T01:37:49.011Z,22.67
2018-10-21T01:40:21.612Z,22.67
2018-10-21T01:42:49.923Z,22.67
2018-10-21T01:45:18.427Z,22.67
2018-10-21T01:47:47.162Z,22.67
2018-10-21T01:50:15.196Z,22.67
2018-10-21T01:52:43.520Z,22.67
2018-10-21T01:55:11.830Z,22.67
2018-10-21T01:57:40.159Z,22.67
2018-10-21T02:00:09.333Z,22.67
2018-10-21T02:02:37.651Z,22.67
2018-10-21T02:05:05.964Z,22.67
2018-10-21T02:07:34.306Z,22.67
2018-10-21T02:10:02.610Z,22.67
2018-10-21T02:12:32.370Z,22.67
2018-10-21T02:14:59.551Z,22.67
2018-10-21T02:17:27.856Z,22.67
2018-10-21T02:19:56.742Z,22.67
2018-10-21T02:22:24.475Z,22.67
2018-10-21T02:24:52.788Z,22.67
2018-10-21T02:27:21.140Z,22.67
2018-10-21T02:29:49.991Z,22.67
2018-10-21T02:32:18.302Z,22.67
2018-10-21T02:34:46.397Z,22.67
2018-10-21T02:37:15.300Z,22.67
2018-10-21T02:39:44.430Z,22.67
2018-10-21T02:42:12.737Z,22.67
2018-10-21T02:44:41.054Z,22.67
2018-10-21T02:47:08.922Z,22.67
2018-10-21T02:49:37.688Z,22.67
2018-10-21T02:52:06.000Z,22.67
2018-10-21T02:54:34.307Z,22.67
2018-10-21T02:57:02.978Z,22.67
2018-10-21T02:59:31.201Z,22.67
2018-10-21T03:01:59.947Z,22.67
2018-10-21T03:04:28.258Z,22.67
2018-10-21T03:06:55.985Z,22.67
2018-10-21T03:09:25.375Z,22.67
2018-10-21T03:11:53.688Z,22.67
2018-10-21T03:14:22.350Z,22.67
2018-10-21T03:16:50.083Z,22.67
2018-10-21T03:19:18.966Z,22.67
2018-10-21T03:21:47.274Z,22.67
2018-10-21T03:24:15.014Z,22.67
2018-10-21T03:26:43.900Z,22.67
2018-10-21T03:29:11.633Z,22.67
2018-10-21T03:31:39.937Z,22.67
2018-10-21T03:34:08.872Z,22.67
2018-10-21T03:36:37.129Z,22.67
2018-10-21T03:39:05.455Z,22.67
2018-10-21T03:41:33.590Z,22.67
2018-10-21T03:44:01.538Z,22.67
2018-10-21T03:46:30.435Z,22.67
2018-10-21T03:48:58.736Z,22.67
2018-10-21T03:51:27.052Z,22.67
2018-10-21T03:53:54.787Z,22.67
2018-10-21T03:56:23.672Z,22.67
2018-10-21T03:58:51.410Z,22.67
2018-10-21T04:01:19.722Z,22.67
2018-10-21T04:03:48.598Z,22.67
2018-10-21T04:06:16.334Z,22.67
2018-10-21T04:08:45.214Z,22.67
2018-10-21T04:11:12.944Z,22.67
2018-10-21T04:13:41.252Z,22.67
2018-10-21T04:16:10.214Z,22.67
2018-10-21T04:18:37.890Z,22.67
2018-10-21T04:21:06.192Z,22.67
2018-10-21T04:23:34.496Z,22.67
2018-10-21T04:26:02.805Z,22.67
2018-10-21T04:28:31.108Z,22.67
2018-10-21T04:31:00.311Z,22.67
2018-10-21T04:33:28.634Z,22.67
2018-10-21T04:35:56.361Z,22.67
2018-10-21T04:38:26.634Z,22.67
2018-10-21T04:40:54.954Z,22.67
2018-10-21T04:43:23.870Z,22.67
2018-10-21T04:45:51.595Z,22.67
2018-10-21T04:48:21.100Z,22.67
2018-10-21T04:50:49.500Z,22.67
2018-10-21T04:53:17.845Z,22.67
2018-10-21T04:55:45.962Z,22.67
2018-10-21T04:58:14.549Z,22.67
2018-10-21T05:00:42.228Z,22.67
2018-10-21T05:03:11.094Z,22.67
2018-10-21T05:05:38.823Z,22.67
2018-10-21T05:08:07.725Z,22.67
2018-10-21T05:10:35.470Z,22.67
2018-10-21T05:13:03.788Z,22.67
2018-10-21T05:15:32.122Z,22.67
2018-10-21T05:18:00.424Z,22.67
2018-10-21T05:20:28.735Z,22.67
2018-10-21T05:22:57.622Z,22.67
2018-10-21T05:25:25.925Z,22.67
2018-10-21T05:27:53.675Z,22.67
2018-10-21T05:30:22.436Z,22.67
2018-10-21T05:32:52.289Z,22.67
2018-10-21T05:35:20.597Z,22.67
2018-10-21T05:37:48.408Z,22.67
2018-10-21T05:40:16.759Z,22.67
2018-10-21T05:42:45.012Z,22.67
2018-10-21T05:45:13.917Z,22.67
2018-10-21T05:47:42.216Z,22.67
2018-10-21T05:52:14.332Z,6.77
2018-10-21T05:54:42.636Z,6.81
2018-10-21T05:57:11.537Z,6.83
2018-10-21T05:59:39.865Z,6.85
2018-10-21T06:02:08.181Z,6.85
2018-10-21T06:04:35.953Z,6.85
2018-10-21T06:07:05.129Z,6.85
2018-10-21T06:09:33.437Z,6.86
2018-10-21T06:12:01.763Z,6.89
2018-10-21T06:14:30.091Z,6.91
2018-10-21T06:16:57.826Z,6.93
2018-10-21T06:19:27.682Z,6.95
2018-10-21T06:21:55.787Z,6.97
2018-10-21T06:24:24.264Z,7.00
2018-10-21T06:26:52.628Z,7.04
2018-10-21T06:29:21.896Z,7.07
2018-10-21T06:31:50.670Z,7.13
2018-10-21T06:34:18.393Z,7.18
2018-10-21T06:36:47.340Z,7.24
2018-10-21T06:39:15.673Z,7.29
2018-10-21T06:41:44.310Z,7.37
2018-10-21T06:44:12.388Z,7.43
2018-10-21T06:46:40.969Z,7.48
2018-10-21T06:49:09.548Z,7.52
2018-10-21T06:51:37.273Z,7.54
2018-10-21T06:54:06.218Z,7.57
2018-10-21T06:56:34.127Z,7.61
2018-10-21T06:59:02.862Z,7.67
2018-10-21T07:01:31.404Z,7.72
2018-10-21T07:03:59.174Z,7.75
2018-10-21T07:06:28.144Z,7.80
2018-10-21T07:08:56.428Z,7.85
2018-10-21T07:11:24.763Z,7.92
2018-10-21T07:13:53.093Z,8.00
2018-10-21T07:16:21.434Z,8.09
2018-10-21T07:18:50.022Z,8.20
2018-10-21T07:21:17.766Z,8.31
2018-10-21T07:23:47.601Z,8.40
2018-10-21T07:26:16.189Z,8.50
2018-10-21T07:28:44.766Z,8.58
2018-10-21T07:31:12.465Z,8.67
2018-10-21T07:33:41.174Z,8.74
2018-10-21T07:36:09.514Z,8.81
2018-10-21T07:38:37.801Z,8.85
2018-10-21T07:41:07.434Z,8.86
2018-10-21T07:43:35.168Z,8.90
2018-10-21T07:46:04.328Z,8.94
2018-10-21T07:48:32.556Z,8.99
2018-10-21T07:51:01.093Z,9.05
2018-10-21T07:53:30.257Z,9.13
2018-10-21T07:55:57.769Z,9.21
2018-10-21T07:58:27.645Z,9.26
2018-10-21T08:00:56.313Z,9.33
2018-10-21T08:03:24.026Z,9.41
2018-10-21T08:06:12.313Z,9.50
2018-10-21T08:08:40.435Z,9.60
2018-10-21T08:11:09.285Z,9.69
2018-10-21T08:13:37.609Z,9.77
2018-10-21T08:16:05.381Z,9.82
2018-10-21T08:18:33.674Z,9.88
2018-10-21T08:21:02.483Z,9.93
2018-10-21T08:23:31.746Z,10.00
2018-10-21T08:26:00.277Z,10.09
2018-10-21T08:28:29.931Z,10.19
2018-10-21T08:30:57.583Z,10.28
2018-10-21T08:33:25.331Z,10.38
2018-10-21T08:35:53.931Z,10.48
2018-10-21T08:38:22.817Z,10.58
2018-10-21T08:40:50.557Z,10.67
2018-10-21T08:43:18.887Z,10.76
2018-10-21T08:45:47.814Z,10.85
2018-10-21T08:48:16.148Z,10.94
2018-10-21T08:50:44.532Z,11.03
2018-10-21T08:53:12.856Z,11.17
2018-10-21T08:55:40.825Z,11.29
2018-10-21T08:58:09.267Z,11.39
2018-10-21T09:00:38.079Z,11.51
2018-10-21T09:03:06.446Z,11.62
2018-10-21T09:05:34.770Z,11.70
2018-10-21T09:08:03.133Z,11.77
2018-10-21T09:10:31.575Z,11.83
2018-10-21T09:13:00.433Z,11.90
2018-10-21T09:15:28.497Z,11.95
2018-10-21T09:17:56.836Z,12.00
2018-10-21T09:20:25.481Z,12.05
2018-10-21T09:22:53.226Z,12.09
2018-10-21T09:25:22.123Z,12.15
2018-10-21T09:27:50.665Z,12.20
2018-10-21T09:30:18.185Z,12.24
2018-10-21T09:32:46.547Z,12.31
2018-10-21T09:35:14.864Z,12.36
2018-10-21T09:37:43.182Z,12.43
2018-10-21T09:40:11.563Z,12.50
2018-10-21T09:42:39.821Z,12.56
2018-10-21T09:45:08.716Z,12.62
2018-10-21T09:47:37.044Z,12.69
2018-10-21T09:50:05.520Z,12.73
2018-10-21T09:52:34.283Z,12.79
2018-10-21T09:55:02.731Z,12.85
2018-10-21T09:57:31.085Z,12.93
2018-10-21T09:59:59.764Z,13.02
2018-10-21T10:02:33.647Z,13.12
2018-10-21T10:05:02.081Z,13.22
2018-10-21T10:07:30.424Z,13.31
2018-10-21T10:09:58.870Z,13.42
2018-10-21T10:12:26.734Z,13.51
2018-10-21T10:14:55.561Z,13.57
2018-10-21T10:17:23.894Z,13.63
2018-10-21T10:19:52.356Z,13.63
2018-10-21T10:22:20.749Z,13.67
2018-10-21T10:24:49.401Z,13.74
2018-10-21T10:27:17.756Z,13.82
2018-10-21T10:29:46.131Z,13.87
2018-10-21T10:32:14.474Z,13.88
2018-10-21T10:34:43.213Z,13.92
2018-10-21T10:37:11.026Z,13.97
2018-10-21T10:39:39.306Z,14.04
2018-10-21T10:42:07.836Z,14.07
2018-10-21T10:44:36.542Z,14.12
2018-10-21T10:47:04.854Z,14.23
2018-10-21T10:49:33.173Z,14.93
2018-10-21T10:52:01.532Z,15.46
2018-10-21T10:54:29.916Z,15.73
2018-10-21T10:56:58.226Z,15.66
2018-10-21T10:59:26.066Z,15.47
2018-10-21T11:01:54.881Z,15.20
2018-10-21T11:04:23.203Z,14.97
2018-10-21T11:06:51.522Z,14.79
2018-10-21T11:09:19.853Z,14.67
2018-10-21T11:11:47.587Z,14.58
2018-10-21T11:14:15.926Z,14.48
2018-10-21T11:16:44.248Z,14.38
2018-10-21T11:19:14.157Z,14.28
2018-10-21T11:21:42.493Z,14.22
2018-10-21T11:24:10.839Z,14.18
2018-10-21T11:26:39.766Z,14.13
2018-10-21T11:29:07.514Z,14.09
2018-10-21T11:31:36.503Z,14.08
2018-10-21T11:34:04.293Z,14.16
2018-10-21T11:36:33.210Z,14.37
2018-10-21T11:39:01.858Z,14.61
2018-10-21T11:41:30.184Z,14.87
2018-10-21T11:43:58.513Z,15.17
2018-10-21T11:46:26.330Z,15.40
2018-10-21T11:48:54.645Z,15.46
2018-10-21T11:51:23.491Z,15.43
2018-10-21T11:53:51.818Z,15.39
2018-10-21T11:56:20.234Z,15.39
2018-10-21T11:58:48.558Z,15.53
2018-10-21T12:01:16.997Z,15.77
2018-10-21T12:03:45.238Z,16.05
2018-10-21T12:06:13.552Z,16.35
2018-10-21T12:08:41.932Z,16.64
2018-10-21T12:11:10.250Z,16.91
2018-10-21T12:13:38.576Z,17.21
2018-10-21T12:16:07.017Z,17.49
2018-10-21T12:18:34.712Z,17.47
2018-10-21T12:21:03.077Z,17.34
2018-10-21T12:23:32.503Z,17.15
2018-10-21T12:26:00.815Z,17.25
2018-10-21T12:28:29.171Z,17.48
2018-10-21T12:30:57.560Z,17.67
2018-10-21T12:33:25.455Z,17.76
2018-10-21T12:35:54.716Z,17.76
2018-10-21T12:38:23.063Z,17.85
2018-10-21T12:40:51.479Z,18.00
2018-10-21T12:43:19.820Z,18.06
2018-10-21T12:45:48.138Z,18.12
2018-10-21T12:48:16.806Z,18.29
2018-10-21T12:50:45.175Z,18.58
2018-10-21T12:53:13.530Z,18.72
2018-10-21T12:55:41.864Z,18.80
2018-10-21T12:58:10.915Z,18.64
2018-10-21T13:00:39.213Z,18.38
2018-10-21T13:03:07.520Z,18.19
2018-10-21T13:05:35.272Z,17.97
2018-10-21T13:08:04.555Z,17.58
2018-10-21T13:10:32.602Z,17.26
2018-10-21T13:13:01.110Z,17.00
2018-10-21T13:15:29.351Z,16.73
2018-10-21T13:17:57.100Z,16.47
2018-10-21T13:20:25.592Z,16.15
2018-10-21T13:22:54.665Z,15.86
2018-10-21T13:25:23.094Z,15.64
2018-10-21T13:27:51.683Z,15.45
2018-10-21T13:30:20.037Z,15.25
2018-10-21T13:32:47.807Z,15.14
2018-10-21T13:35:16.737Z,15.72
2018-10-21T13:37:45.040Z,16.27
2018-10-21T13:40:12.928Z,16.68
2018-10-21T13:42:41.747Z,17.02
2018-10-21T13:45:10.538Z,17.41
2018-10-21T13:47:38.414Z,17.82
2018-10-21T13:50:07.346Z,18.26
2018-10-21T13:52:35.104Z,18.51
2018-10-21T13:55:23.473Z,18.18
2018-10-21T13:57:51.792Z,17.82
2018-10-21T14:00:20.233Z,17.56
2018-10-21T14:02:48.553Z,17.63
2018-10-21T14:05:16.878Z,17.49
2018-10-21T14:07:45.196Z,17.19
2018-10-21T14:10:13.657Z,16.90
2018-10-21T14:12:41.333Z,16.59
2018-10-21T14:15:09.750Z,16.35
2018-10-21T14:17:38.801Z,16.15
2018-10-21T14:20:06.534Z,15.92
2018-10-21T14:22:34.847Z,15.72
2018-10-21T14:25:03.778Z,15.56
2018-10-21T14:27:31.650Z,15.44
2018-10-21T14:30:00.540Z,15.33
2018-10-21T14:32:28.940Z,15.24
2018-10-21T14:34:57.289Z,15.14
2018-10-21T14:37:25.049Z,15.05
2018-10-21T14:39:53.949Z,14.99
2018-10-21T14:42:22.361Z,14.92
2018-10-21T14:44:50.904Z,14.86
2018-10-21T14:47:18.639Z,14.81
2018-10-21T14:49:47.006Z,14.77
2018-10-21T14:52:16.012Z,14.73
2018-10-21T14:54:44.375Z,14.69
2018-10-21T14:57:12.800Z,14.65
2018-10-21T14:59:41.125Z,14.61
2018-10-21T15:02:08.998Z,14.56
2018-10-21T15:04:39.040Z,14.49
2018-10-21T15:07:06.798Z,14.39
2018-10-21T15:09:35.730Z,14.22
2018-10-21T15:12:03.484Z,14.08
2018-10-21T15:14:32.330Z,13.95
2018-10-21T15:17:00.077Z,13.85
2018-10-21T15:19:29.176Z,13.75
2018-10-21T15:21:56.960Z,13.66
2018-10-21T15:24:25.835Z,13.56
2018-10-21T15:26:54.264Z,13.48
2018-10-21T15:29:22.601Z,13.41
2018-10-21T15:31:51.143Z,13.36
2018-10-21T15:34:19.473Z,13.33
2018-10-21T15:36:47.221Z,13.25
2018-10-21T15:39:16.209Z,13.17
2018-10-21T15:41:43.945Z,13.08
2018-10-21T15:44:12.325Z,12.98
2018-10-21T15:46:41.212Z,12.89
2018-10-21T15:49:09.546Z,12.81
2018-10-21T15:51:37.304Z,12.74
2018-10-21T15:54:06.283Z,12.68
2018-10-21T15:56:34.746Z,12.62
2018-10-21T15:59:02.509Z,12.56
2018-10-21T16:01:31.652Z,12.48
2018-10-21T16:03:59.488Z,12.43
2018-10-21T16:06:27.769Z,12.36
2018-10-21T16:08:56.105Z,12.23
2018-10-21T16:11:25.027Z,12.11
2018-10-21T16:13:53.369Z,11.97
2018-10-21T16:16:21.223Z,11.85
2018-10-21T16:18:49.443Z,11.79
2018-10-21T16:21:18.355Z,11.75
2018-10-21T16:23:46.109Z,11.70
2018-10-21T16:26:15.269Z,11.65
2018-10-21T16:28:43.548Z,11.60
2018-10-21T16:31:11.892Z,11.53
2018-10-21T16:33:40.226Z,11.48
2018-10-21T16:36:08.549Z,11.46
2018-10-21T16:38:36.291Z,11.43
2018-10-21T16:41:04.615Z,11.38
2018-10-21T16:43:33.795Z,11.29
2018-10-21T16:46:01.834Z,11.22
2018-10-21T16:48:30.447Z,11.15
2018-10-21T16:50:58.842Z,11.10
2018-10-21T16:53:27.372Z,11.04
2018-10-21T16:55:55.620Z,10.99
2018-10-21T16:58:24.409Z,10.95
2018-10-21T17:00:52.286Z,10.90
2018-10-21T17:03:21.124Z,10.84
2018-10-21T17:05:49.225Z,10.78
2018-10-21T17:08:18.046Z,10.75
2018-10-21T17:10:45.897Z,10.71
2018-10-21T17:13:14.237Z,10.66
2018-10-21T17:15:43.127Z,10.61
2018-10-21T17:18:11.468Z,10.59
2018-10-21T17:20:39.837Z,10.56
2018-10-21T17:23:08.178Z,10.52
2018-10-21T17:25:36.565Z,10.49
2018-10-21T17:28:04.308Z,10.46
2018-10-21T17:30:33.366Z,10.42
2018-10-21T17:33:01.816Z,10.38
2018-10-21T17:35:29.803Z,10.34
2018-10-21T17:37:58.143Z,10.32
2018-10-21T17:40:26.741Z,10.31
2018-10-21T17:42:55.555Z,10.29
2018-10-21T17:45:23.301Z,10.25
2018-10-21T17:47:51.629Z,10.23
2018-10-21T17:50:20.128Z,10.19
2018-10-21T17:52:48.888Z,10.16
2018-10-21T17:55:16.777Z,10.14
2018-10-21T17:57:45.542Z,10.11
2018-10-21T18:00:13.886Z,10.08
2018-10-21T18:02:41.646Z,10.07
2018-10-21T18:05:10.814Z,10.05
2018-10-21T18:07:39.159Z,10.03
2018-10-21T18:10:07.178Z,10.02
2018-10-21T18:12:35.839Z,10.00
2018-10-21T18:15:04.197Z,10.00
2018-10-21T18:17:32.531Z,10.00
2018-10-21T18:20:01.174Z,9.98
2018-10-21T18:22:29.826Z,9.98
2018-10-21T18:24:59.053Z,9.97
2018-10-21T18:27:26.925Z,9.97
2018-10-21T18:29:55.996Z,9.99
2018-10-21T18:32:24.416Z,9.97
2018-10-21T18:34:52.754Z,9.95
2018-10-21T18:37:20.482Z,9.93
2018-10-21T18:39:48.817Z,9.87
2018-10-21T18:42:17.722Z,9.84
2018-10-21T18:44:45.545Z,9.80
2018-10-21T18:47:14.552Z,9.77
2018-10-21T18:49:43.102Z,9.74
2018-10-21T18:52:11.768Z,9.72
2018-10-21T18:54:40.051Z,9.70
2018-10-21T18:57:08.362Z,9.68
2018-10-21T18:59:36.685Z,9.68
2018-10-21T19:02:05.001Z,9.68
2018-10-21T19:04:33.413Z,9.70
2018-10-21T19:07:02.045Z,9.73
2018-10-21T19:09:30.642Z,9.72
2018-10-21T19:11:59.036Z,9.72
2018-10-21T19:14:26.800Z,9.72
2018-10-21T19:16:55.160Z,9.73
2018-10-21T19:19:24.079Z,9.73
2018-10-21T19:21:52.462Z,9.72
2018-10-21T19:24:20.784Z,9.71
2018-10-21T19:26:49.211Z,9.71
2018-10-21T19:29:17.536Z,9.72
2018-10-21T19:31:47.090Z,9.72
2018-10-21T19:34:15.594Z,9.74
2018-10-21T19:36:45.801Z,9.77
2018-10-21T19:39:15.684Z,9.81
2018-10-21T19:41:44.157Z,9.83
2018-10-21T19:44:12.553Z,9.82
2018-10-21T19:46:41.180Z,9.83
2018-10-21T19:49:09.834Z,9.83
2018-10-21T19:51:38.661Z,9.83
2018-10-21T19:54:07.028Z,9.84
2018-10-21T19:56:35.802Z,9.86
2018-10-21T19:59:05.563Z,9.86
2018-10-21T20:01:35.473Z,9.86
2018-10-21T20:04:03.921Z,9.87
2018-10-21T20:06:33.376Z,9.87
2018-10-21T20:09:01.802Z,9.88
2018-10-21T20:11:30.073Z,9.88
2018-10-21T20:13:58.495Z,9.88
2018-10-21T20:16:27.585Z,9.88
2018-10-21T20:18:55.974Z,9.90
2018-10-21T20:21:24.570Z,9.88
2018-10-21T20:23:52.886Z,9.86
2018-10-21T20:26:21.250Z,9.84
2018-10-21T20:28:49.033Z,9.84
2018-10-21T20:31:17.950Z,9.83
2018-10-21T20:33:45.718Z,9.83
2018-10-21T20:36:14.572Z,9.84
2018-10-21T20:38:42.894Z,9.84
2018-10-21T20:41:10.645Z,9.83
2018-10-21T20:43:38.961Z,9.82
2018-10-21T20:46:07.347Z,9.82
2018-10-21T20:48:36.369Z,9.80
2018-10-21T20:51:05.368Z,9.79
2018-10-21T20:53:33.665Z,9.79
2018-10-21T20:56:01.973Z,9.78
2018-10-21T20:58:29.840Z,9.76
2018-10-21T21:00:58.425Z,9.75
2018-10-21T21:03:27.967Z,9.76
2018-10-21T21:05:56.630Z,9.77
2018-10-21T21:08:26.812Z,9.78
2018-10-21T21:10:54.791Z,9.81
2018-10-21T21:13:25.035Z,9.81
2018-10-21T21:15:53.526Z,9.83
2018-10-21T21:18:22.859Z,9.83
2018-10-21T21:20:50.601Z,9.85
2018-10-21T21:23:18.949Z,9.86
2018-10-21T21:25:47.448Z,9.87
2018-10-21T21:28:16.645Z,9.88
2018-10-21T21:30:46.183Z,9.90
2018-10-21T21:33:14.734Z,9.90
2018-10-21T21:35:43.091Z,9.92
2018-10-21T21:38:11.420Z,9.95
2018-10-21T21:40:39.742Z,9.96
2018-10-21T21:43:08.094Z,9.99
2018-10-21T21:45:36.471Z,10.02
2018-10-21T21:48:05.032Z,10.07
2018-10-21T21:50:32.935Z,10.11
2018-10-21T21:53:01.838Z,10.13
2018-10-21T21:55:31.183Z,10.19
2018-10-21T21:57:58.983Z,10.25
2018-10-21T22:00:28.020Z,10.26
2018-10-21T22:02:56.941Z,10.27
2018-10-21T22:05:25.810Z,10.29
2018-10-21T22:07:56.132Z,10.30
2018-10-21T22:10:24.059Z,10.31
2018-10-21T22:12:54.003Z,10.31
2018-10-21T22:15:22.641Z,10.32
2018-10-21T22:17:51.325Z,10.33
2018-10-21T22:20:19.671Z,10.32
2018-10-21T22:22:48.095Z,10.29
2018-10-21T22:25:17.061Z,10.30
2018-10-21T22:27:45.702Z,10.32
2018-10-21T22:30:13.870Z,10.32
2018-10-21T22:32:42.120Z,10.33
2018-10-21T22:35:09.858Z,10.36
2018-10-21T22:37:38.179Z,10.37
2018-10-21T22:40:06.524Z,10.38
2018-10-21T22:42:35.424Z,10.39
2018-10-21T22:45:03.155Z,10.39
2018-10-21T22:47:32.055Z,10.40
2018-10-21T22:50:00.384Z,10.41
2018-10-21T22:52:28.708Z,10.43
2018-10-21T22:54:57.035Z,10.45
2018-10-21T22:57:25.353Z,10.47
2018-10-21T22:59:53.713Z,10.50
2018-10-21T23:02:21.887Z,10.53
2018-10-21T23:04:50.313Z,10.55
2018-10-21T23:07:18.476Z,10.58
2018-10-21T23:09:46.364Z,10.59
2018-10-21T23:12:15.301Z,10.59
2018-10-21T23:14:43.350Z,10.60
2018-10-21T23:17:11.361Z,10.61
2018-10-21T23:19:40.253Z,10.63
2018-10-21T23:22:08.656Z,10.64
2018-10-21T23:24:36.309Z,10.65
2018-10-21T23:27:05.216Z,10.64
2018-10-21T23:29:32.953Z,10.64
2018-10-21T23:32:01.273Z,10.64
2018-10-21T23:34:29.700Z,10.63
2018-10-21T23:36:57.912Z,10.64
2018-10-21T23:39:26.305Z,10.64
2018-10-21T23:41:55.132Z,10.63
2018-10-21T23:44:23.771Z,10.63
2018-10-21T23:46:51.540Z,10.62
2018-10-21T23:49:19.865Z,10.63
2018-10-21T23:51:48.769Z,10.65
2018-10-21T23:54:16.608Z,10.65
2018-10-21T23:56:44.839Z,10.65
2018-10-21T23:59:13.155Z,10.65
